Time;durP1;ratioP1;P1;durP2;ratioP2;P2;SDS_P1;SDS_P2;PMS_P1;PMS_P2;Temp;Humidity;BMP_temperature;BMP_pressure;BME280_temperature;BME280_humidity;BME280_pressure;Samples;Min_cycle;Max_cycle;Signal;HPM_P1;HPM_P2
2022/03/31 00:01:03;;;;;;;20.45;8.20;;;;;;;10.48;85.71;98741.94;4516721;31;20495;-69
2022/03/31 00:03:30;;;;;;;15.40;7.80;;;;;;;10.47;84.88;98737.59;4517344;31;20474;-69
2022/03/31 00:05:57;;;;;;;17.30;7.15;;;;;;;10.51;84.11;98731.28;4517440;31;20109;-70
2022/03/31 00:08:24;;;;;;;16.30;7.50;;;;;;;10.58;84.69;98737.19;4517154;31;20112;-69
2022/03/31 00:10:54;;;;;;;20.23;7.57;;;;;;;10.55;84.01;98732.88;4517212;31;20123;-69
2022/03/31 00:13:24;;;;;;;19.58;8.40;;;;;;;10.56;84.44;98733.75;4517074;31;20091;-69
2022/03/31 00:15:53;;;;;;;20.25;8.13;;;;;;;10.57;84.74;98732.84;4517100;31;20482;-70
2022/03/31 00:18:21;;;;;;;17.37;7.95;;;;;;;10.56;84.09;98734.59;4517073;31;20095;-70
2022/03/31 00:20:49;;;;;;;27.23;9.13;;;;;;;10.60;84.12;98724.78;4517022;31;20095;-70
2022/03/31 00:23:16;;;;;;;20.27;8.02;;;;;;;10.59;83.47;98723.09;4517045;31;20110;-69
2022/03/31 00:25:44;;;;;;;23.85;9.05;;;;;;;10.58;83.41;98721.37;4517029;31;20113;-69
2022/03/31 00:28:11;;;;;;;19.62;7.75;;;;;;;10.52;84.30;98717.19;4517004;31;20122;-69
2022/03/31 00:30:39;;;;;;;18.08;8.18;;;;;;;10.50;83.05;98722.53;4516914;31;20104;-70
2022/03/31 00:33:06;;;;;;;20.00;8.32;;;;;;;10.47;83.07;98709.47;4517110;31;20464;-69
2022/03/31 00:35:34;;;;;;;21.25;8.98;;;;;;;10.42;85.12;98711.41;4517052;31;20099;-69
2022/03/31 00:38:01;;;;;;;40.40;9.07;;;;;;;10.35;86.08;98709.94;4516804;31;20446;-69
2022/03/31 00:40:31;;;;;;;19.85;9.10;;;;;;;10.31;85.57;98713.59;4516873;31;20166;-69
2022/03/31 00:42:59;;;;;;;20.20;8.25;;;;;;;10.28;85.46;98714.59;4516723;31;20080;-70
2022/03/31 00:45:34;;;;;;;19.33;8.18;;;;;;;10.27;86.49;98709.38;4516661;31;20521;-70
2022/03/31 00:48:02;;;;;;;22.87;8.10;;;;;;;10.26;85.19;98702.41;4516706;31;20151;-70
2022/03/31 00:50:31;;;;;;;16.87;8.75;;;;;;;10.32;84.13;98698.66;4516790;31;20513;-70
2022/03/31 00:52:58;;;;;;;18.08;8.63;;;;;;;10.29;84.12;98691.75;4516617;31;20449;-69
2022/03/31 00:55:46;;;;;;;22.98;9.00;;;;;;;10.26;85.98;98683.97;4516771;31;20508;-69
2022/03/31 00:58:14;;;;;;;29.87;9.50;;;;;;;10.24;84.00;98676.09;4516462;31;20100;-69
2022/03/31 01:00:41;;;;;;;25.92;9.82;;;;;;;10.20;85.95;98679.75;4516463;31;20107;-69
2022/03/31 01:03:09;;;;;;;26.00;9.75;;;;;;;10.20;85.78;98679.75;4516509;31;20080;-69
2022/03/31 01:05:39;;;;;;;23.75;9.90;;;;;;;10.22;87.26;98679.72;4516418;31;20096;-69
2022/03/31 01:08:06;;;;;;;19.65;9.13;;;;;;;10.23;86.42;98668.25;4516351;31;20514;-70
2022/03/31 01:10:34;;;;;;;26.98;9.40;;;;;;;10.21;86.51;98668.34;4516521;31;20087;-69
2022/03/31 01:13:06;;;;;;;35.08;9.90;;;;;;;10.20;86.96;98663.09;4518189;31;20083;-70
2022/03/31 01:15:33;;;;;;;22.48;9.23;;;;;;;10.21;86.63;98670.06;4518663;31;20506;-70
2022/03/31 01:18:01;;;;;;;27.92;10.40;;;;;;;10.24;86.62;98664.69;4518420;31;20163;-69
2022/03/31 01:20:28;;;;;;;21.58;8.93;;;;;;;10.20;87.99;98657.84;4503837;31;20110;-69
2022/03/31 01:22:56;;;;;;;23.27;9.55;;;;;;;10.15;88.89;98665.06;4518448;31;20138;-70
2022/03/31 01:25:24;;;;;;;21.90;9.13;;;;;;;10.13;88.61;98661.63;4518742;31;20175;-70
2022/03/31 01:27:51;;;;;;;25.70;9.20;;;;;;;10.13;88.67;98666.87;4518477;31;20119;-69
2022/03/31 01:30:22;;;;;;;16.17;8.85;;;;;;;10.11;89.81;98668.72;4518504;31;20458;-69
2022/03/31 01:32:50;;;;;;;31.80;9.60;;;;;;;10.08;88.42;98653.91;4518482;31;20127;-69
2022/03/31 01:35:17;;;;;;;22.75;9.88;;;;;;;10.07;88.42;98654.84;4503541;31;20091;-70
2022/03/31 01:37:45;;;;;;;16.08;9.68;;;;;;;10.11;87.41;98650.31;4518333;31;20091;-70
2022/03/31 01:40:13;;;;;;;25.67;10.15;;;;;;;10.10;87.40;98645.94;4518607;31;20111;-69
2022/03/31 01:42:42;;;;;;;19.95;9.40;;;;;;;10.13;87.07;98643.19;4518460;31;20673;-69
2022/03/31 01:45:11;;;;;;;22.40;8.90;;;;;;;10.10;87.08;98654.69;4518545;31;20187;-69
2022/03/31 01:47:39;;;;;;;22.48;9.80;;;;;;;10.12;87.41;98646.75;4518333;31;20179;-69
2022/03/31 01:50:09;;;;;;;24.27;9.88;;;;;;;10.22;86.50;98648.12;4518248;31;20091;-69
2022/03/31 01:52:38;;;;;;;22.92;9.75;;;;;;;10.19;86.89;98642.97;4518405;31;20183;-69
2022/03/31 01:55:07;;;;;;;20.80;9.63;;;;;;;10.25;85.66;98645.37;4518216;31;20146;-69
2022/03/31 01:57:34;;;;;;;27.37;10.40;;;;;;;10.21;85.73;98641.12;4518190;31;20404;-69
2022/03/31 02:00:05;;;;;;;27.20;9.13;;;;;;;10.33;83.79;98645.97;4518163;31;20133;-70
2022/03/31 02:02:39;;;;;;;22.23;9.32;;;;;;;10.23;84.59;98634.88;4518324;31;20083;-69
2022/03/31 02:05:07;;;;;;;27.33;10.18;;;;;;;10.15;85.33;98636.13;4518285;31;20163;-70
2022/03/31 02:07:36;;;;;;;18.42;9.75;;;;;;;10.10;85.86;98630.16;4518302;31;20118;-69
2022/03/31 02:10:13;;;;;;;20.20;10.02;;;;;;;10.01;86.75;98626.97;4518401;31;20159;-69
2022/03/31 02:12:41;;;;;;;28.58;9.73;;;;;;;9.82;87.91;98620.66;4518193;31;20166;-70
2022/03/31 02:15:12;;;;;;;25.02;10.43;;;;;;;9.71;87.77;98613.16;4518143;31;20091;-70
2022/03/31 02:17:39;;;;;;;21.77;10.52;;;;;;;9.63;88.64;98625.75;4518130;31;20080;-70
2022/03/31 02:20:08;;;;;;;29.40;10.57;;;;;;;9.55;88.21;98626.03;4518233;31;20107;-70
2022/03/31 02:22:36;;;;;;;27.90;10.63;;;;;;;9.51;88.74;98615.69;4517745;31;20233;-69
2022/03/31 02:25:03;;;;;;;23.38;9.07;;;;;;;9.45;88.85;98611.50;4518292;31;20111;-69
2022/03/31 02:27:31;;;;;;;23.60;9.93;;;;;;;9.40;90.07;98613.44;4518129;31;20151;-70
2022/03/31 02:29:58;;;;;;;25.73;9.98;;;;;;;9.38;90.45;98612.63;4518037;31;20099;-69
2022/03/31 02:32:26;;;;;;;23.30;9.63;;;;;;;9.39;90.59;98614.31;4517975;31;20090;-70
2022/03/31 02:34:53;;;;;;;21.25;9.63;;;;;;;9.41;91.00;98615.16;4518009;31;20137;-69
2022/03/31 02:37:21;;;;;;;21.08;10.20;;;;;;;9.41;90.86;98616.91;4517947;31;20096;-69
2022/03/31 02:39:48;;;;;;;28.40;10.10;;;;;;;9.48;91.05;98613.16;4518028;31;20103;-69
2022/03/31 02:42:16;;;;;;;21.90;9.80;;;;;;;9.56;90.07;98609.31;4517984;31;20154;-70
2022/03/31 02:44:44;;;;;;;21.70;9.25;;;;;;;9.61;90.42;98606.56;4517951;31;20119;-69
2022/03/31 02:47:11;;;;;;;26.17;9.73;;;;;;;9.64;90.16;98610.81;4517821;31;20100;-70
2022/03/31 02:49:40;;;;;;;22.83;10.35;;;;;;;9.61;91.31;98601.28;4517921;31;20505;-70
2022/03/31 02:52:08;;;;;;;21.25;8.38;;;;;;;9.56;92.29;98596.19;4518074;31;20150;-70
2022/03/31 02:57:22;;;;;;;17.30;10.02;;;;;;;9.58;91.18;98596.16;4517800;31;20087;-70
2022/03/31 02:59:49;;;;;;;20.23;9.70;;;;;;;9.57;90.62;98589.16;4518165;31;20091;-69
2022/03/31 03:02:16;;;;;;;21.67;10.38;;;;;;;9.56;91.10;98596.19;4517771;31;20432;-69
2022/03/31 03:04:43;;;;;;;29.33;10.07;;;;;;;9.53;91.13;98593.66;4502934;31;20104;-69
2022/03/31 03:07:10;;;;;;;27.95;9.00;;;;;;;9.59;91.24;98589.97;4517766;31;20459;-69
2022/03/31 03:09:38;;;;;;;22.17;9.95;;;;;;;9.59;90.75;98589.97;4517867;31;20241;-69
2022/03/31 03:12:06;;;;;;;24.33;10.05;;;;;;;9.60;91.27;98585.56;4517623;31;20329;-70
2022/03/31 03:14:33;;;;;;;25.15;10.20;;;;;;;9.58;90.99;98585.63;4517807;31;20724;-70
2022/03/31 03:17:00;;;;;;;21.67;10.52;;;;;;;9.52;91.92;98586.69;4517650;31;20497;-69
2022/03/31 03:19:28;;;;;;;20.92;8.82;;;;;;;9.53;92.07;98584.91;4517643;31;20091;-69
2022/03/31 03:21:55;;;;;;;22.05;9.50;;;;;;;9.50;92.28;98585.03;4517696;31;20158;-70
2022/03/31 03:24:22;;;;;;;22.27;9.68;;;;;;;9.51;91.92;98584.97;4517685;31;20167;-69
2022/03/31 03:26:49;;;;;;;21.95;9.75;;;;;;;9.52;91.58;98578.81;4517665;31;20134;-69
2022/03/31 03:29:16;;;;;;;23.67;9.77;;;;;;;9.55;91.16;98570.81;4517564;31;20540;-70
2022/03/31 03:31:44;;;;;;;19.40;9.02;;;;;;;9.51;91.93;98573.63;4511336;31;20102;-69
2022/03/31 03:34:11;;;;;;;25.90;10.10;;;;;;;9.48;91.96;98571.94;4517271;31;20111;-70
2022/03/31 03:36:38;;;;;;;23.70;9.75;;;;;;;9.44;92.18;98575.59;4503297;31;20121;-69
2022/03/31 03:39:06;;;;;;;23.55;10.07;;;;;;;9.42;92.02;98560.78;4517988;31;20103;-69
2022/03/31 03:41:33;;;;;;;19.98;9.73;;;;;;;9.44;92.59;98562.47;4517874;31;20142;-70
2022/03/31 03:44:00;;;;;;;18.73;10.18;;;;;;;9.45;91.82;98565.94;4518226;31;20095;-70
2022/03/31 03:46:27;;;;;;;26.00;10.27;;;;;;;9.40;92.99;98563.50;4518212;31;20118;-70
2022/03/31 03:48:55;;;;;;;25.40;10.77;;;;;;;9.36;93.19;98553.97;4518024;31;20153;-70
2022/03/31 03:51:25;;;;;;;22.08;10.05;;;;;;;9.32;93.50;98541.88;4517465;31;20099;-69
2022/03/31 03:53:53;;;;;;;19.17;11.05;;;;;;;9.30;93.57;98544.56;4517886;31;20094;-70
2022/03/31 03:56:20;;;;;;;21.95;9.95;;;;;;;9.29;93.95;98548.13;4517470;31;20103;-70
2022/03/31 03:58:48;;;;;;;20.83;10.18;;;;;;;9.30;93.46;98549.81;4517419;31;20103;-72
2022/03/31 04:01:15;;;;;;;22.17;10.75;;;;;;;9.31;92.81;98548.03;4518016;31;20486;-71
2022/03/31 04:03:42;;;;;;;18.50;10.23;;;;;;;9.37;92.96;98545.19;4517956;31;20117;-71
2022/03/31 04:06:11;;;;;;;23.00;9.90;;;;;;;9.43;92.20;98542.31;4507482;31;20705;-71
2022/03/31 04:08:38;;;;;;;25.08;10.98;;;;;;;9.44;92.12;98540.59;4517146;31;20482;-71
2022/03/31 04:11:06;;;;;;;25.17;10.60;;;;;;;9.43;91.15;98547.56;4517358;31;20114;-71
2022/03/31 04:13:33;;;;;;;22.80;10.48;;;;;;;9.37;92.58;98544.34;4516985;31;20079;-71
2022/03/31 04:16:00;;;;;;;23.45;10.65;;;;;;;9.36;92.69;98539.97;4517253;31;20091;-72
2022/03/31 04:18:28;;;;;;;24.42;10.93;;;;;;;9.42;92.07;98538.00;4517118;31;20125;-72
2022/03/31 04:20:55;;;;;;;20.95;9.98;;;;;;;9.41;91.55;98533.66;4517008;31;20435;-71
2022/03/31 04:23:22;;;;;;;22.80;10.05;;;;;;;9.40;90.62;98528.44;4517038;31;20536;-71
2022/03/31 04:25:50;;;;;;;20.45;9.27;;;;;;;9.34;91.67;98534.78;4516889;31;20096;-71
2022/03/31 04:28:17;;;;;;;21.52;10.23;;;;;;;9.32;91.57;98536.59;4517149;31;20171;-71
2022/03/31 04:30:44;;;;;;;17.25;10.02;;;;;;;9.32;91.18;98537.47;4516971;31;20155;-71
2022/03/31 04:33:12;;;;;;;20.23;11.05;;;;;;;9.30;92.63;98539.31;4516912;31;20519;-71
2022/03/31 04:35:40;;;;;;;19.35;10.35;;;;;;;9.26;92.73;98542.09;4517089;31;20253;-71
2022/03/31 04:38:07;;;;;;;24.60;10.85;;;;;;;9.25;92.85;98540.38;4516837;31;20104;-71
2022/03/31 04:40:35;;;;;;;32.25;11.40;;;;;;;9.28;92.93;98535.84;4516967;31;20454;-71
2022/03/31 04:43:02;;;;;;;20.00;10.35;;;;;;;9.26;93.97;98531.59;4516649;31;20105;-71
2022/03/31 04:45:29;;;;;;;30.17;11.30;;;;;;;9.26;94.63;98534.22;4517204;31;20088;-71
2022/03/31 04:47:56;;;;;;;22.55;11.60;;;;;;;9.27;94.48;98531.53;4518715;31;20115;-71
2022/03/31 04:50:23;;;;;;;19.80;10.68;;;;;;;9.29;94.57;98529.72;4518729;31;20083;-71
2022/03/31 04:52:50;;;;;;;21.08;11.00;;;;;;;9.33;93.41;98528.69;4515227;31;20083;-71
2022/03/31 04:55:18;;;;;;;25.62;11.68;;;;;;;9.36;93.80;98532.94;4502695;31;20512;-71
2022/03/31 04:57:46;;;;;;;18.12;10.27;;;;;;;9.41;93.40;98525.78;4502683;31;20534;-71
2022/03/31 05:00:13;;;;;;;20.85;10.38;;;;;;;9.44;94.56;98524.81;4503607;31;20383;-71
2022/03/31 05:02:41;;;;;;;19.70;10.63;;;;;;;9.45;94.70;98522.09;4503408;31;20152;-71
2022/03/31 05:05:08;;;;;;;34.33;11.77;;;;;;;9.41;96.08;98524.91;4503454;31;20084;-71
2022/03/31 05:07:35;;;;;;;29.92;11.88;;;;;;;9.40;95.96;98525.81;4503208;31;20747;-71
2022/03/31 05:10:03;;;;;;;34.33;12.15;;;;;;;9.43;96.15;98521.28;4509900;31;20528;-71
2022/03/31 05:12:30;;;;;;;29.30;12.37;;;;;;;9.45;96.93;98522.09;4517950;31;20469;-71
2022/03/31 05:14:57;;;;;;;29.60;11.23;;;;;;;9.47;96.83;98514.16;4519036;31;20156;-71
2022/03/31 05:17:27;;;;;;;25.52;11.65;;;;;;;9.50;95.22;98524.56;4519224;31;20207;-71
2022/03/31 05:19:54;;;;;;;23.58;11.15;;;;;;;9.51;95.06;98519.25;4519156;31;20485;-71
2022/03/31 05:22:21;;;;;;;25.62;11.70;;;;;;;9.55;95.28;98520.00;4518275;31;20106;-71
2022/03/31 05:24:48;;;;;;;20.62;11.48;;;;;;;9.53;95.99;98513.94;4518465;31;20588;-71
2022/03/31 05:27:15;;;;;;;20.52;11.57;;;;;;;9.58;95.56;98514.63;4518393;31;20096;-71
2022/03/31 05:29:43;;;;;;;24.45;12.23;;;;;;;9.61;95.39;98516.25;4518411;31;20125;-72
2022/03/31 05:32:11;;;;;;;24.27;11.27;;;;;;;9.61;95.55;98519.78;4518347;31;20111;-71
2022/03/31 05:34:38;;;;;;;26.58;11.80;;;;;;;9.62;95.61;98518.84;4518202;31;20168;-71
2022/03/31 05:37:05;;;;;;;18.87;11.10;;;;;;;9.65;95.50;98517.88;4511133;31;20107;-71
2022/03/31 05:39:33;;;;;;;25.77;12.57;;;;;;;9.66;95.88;98517.81;4513568;31;20186;-71
2022/03/31 05:42:00;;;;;;;34.42;13.90;;;;;;;9.69;95.83;98525.59;4512820;31;20115;-72
2022/03/31 05:44:27;;;;;;;28.10;12.45;;;;;;;9.75;93.82;98513.97;4503012;31;20612;-71
2022/03/31 05:46:55;;;;;;;27.77;12.25;;;;;;;9.78;93.59;98514.69;4501968;31;20179;-69
2022/03/31 05:49:22;;;;;;;29.08;12.48;;;;;;;9.79;94.08;98521.69;4509643;31;20091;-69
2022/03/31 05:51:49;;;;;;;35.53;17.42;;;;;;;9.80;94.47;98517.28;4504723;31;20100;-69
2022/03/31 05:54:16;;;;;;;47.70;17.60;;;;;;;9.85;93.72;98520.59;4517082;31;20187;-69
2022/03/31 05:56:43;;;;;;;39.78;17.73;;;;;;;9.89;93.77;98522.19;4508312;31;20125;-69
2022/03/31 05:59:11;;;;;;;42.08;18.27;;;;;;;9.89;94.50;98518.69;4505791;31;20110;-69
2022/03/31 06:01:38;;;;;;;42.30;18.25;;;;;;;9.86;93.69;98526.69;4503024;31;20091;-69
2022/03/31 06:04:05;;;;;;;33.55;17.83;;;;;;;9.91;92.33;98532.66;4502990;31;20131;-70
2022/03/31 06:06:33;;;;;;;44.38;17.85;;;;;;;9.89;92.52;98527.44;4502672;31;20095;-70
2022/03/31 06:09:00;;;;;;;42.53;18.45;;;;;;;9.93;93.85;98522.91;4502828;31;20845;-69
2022/03/31 06:11:27;;;;;;;40.75;18.70;;;;;;;9.89;94.53;98524.81;4502695;31;20398;-69
2022/03/31 06:13:54;;;;;;;42.88;17.90;;;;;;;9.90;94.03;98528.31;4503000;31;20092;-69
2022/03/31 06:16:21;;;;;;;46.22;20.40;;;;;;;9.93;93.93;98526.44;4503933;31;20150;-69
2022/03/31 06:18:49;;;;;;;50.17;21.48;;;;;;;9.97;93.46;98532.44;4508980;31;20088;-69
2022/03/31 06:21:17;;;;;;;46.30;20.58;;;;;;;9.94;94.60;98536.03;4516975;31;20095;-69
2022/03/31 06:23:44;;;;;;;57.50;24.33;;;;;;;9.94;94.79;98538.66;4518481;31;20092;-70
2022/03/31 06:26:11;;;;;;;50.95;22.50;;;;;;;9.96;96.02;98546.47;4518664;31;20107;-69
2022/03/31 06:28:39;;;;;;;35.90;18.48;;;;;;;9.96;96.61;98544.69;4518827;31;20802;-70
2022/03/31 06:31:06;;;;;;;36.10;15.82;;;;;;;9.97;97.23;98543.81;4518802;31;20122;-70
2022/03/31 06:33:34;;;;;;;27.85;15.65;;;;;;;9.95;97.36;98544.78;4518671;31;20091;-69
2022/03/31 06:36:01;;;;;;;32.63;14.23;;;;;;;9.96;97.19;98552.59;4516190;31;20172;-69
2022/03/31 06:38:29;;;;;;;33.88;13.93;;;;;;;9.97;98.31;98556.97;4502747;31;20071;-69
2022/03/31 06:41:10;;;;;;;26.58;13.57;;;;;;;9.94;100.00;98561.47;4502714;31;20140;-68
2022/03/31 06:43:39;;;;;;;31.87;13.45;;;;;;;9.94;100.00;98564.97;4502680;31;20466;-69
2022/03/31 06:46:08;;;;;;;33.10;14.50;;;;;;;9.96;99.16;98571.00;4502586;31;20215;-69
2022/03/31 06:48:36;;;;;;;24.63;12.52;;;;;;;9.98;97.51;98568.34;4502702;31;20110;-69
2022/03/31 06:51:05;;;;;;;33.67;12.90;;;;;;;10.01;96.22;98566.44;4502779;31;20091;-70
2022/03/31 06:53:32;;;;;;;21.40;12.40;;;;;;;10.01;99.06;98571.72;4502582;31;20122;-69
2022/03/31 06:55:59;;;;;;;30.73;13.20;;;;;;;9.95;100.00;98564.03;4502667;31;20130;-69
2022/03/31 06:58:29;;;;;;;35.10;14.35;;;;;;;9.96;100.00;98565.75;4502547;31;20105;-69
2022/03/31 07:00:58;;;;;;;35.03;14.80;;;;;;;9.90;100.00;98562.53;4502259;31;20084;-69
2022/03/31 07:03:26;;;;;;;29.95;14.27;;;;;;;9.85;100.00;98557.41;4501994;31;20164;-68
2022/03/31 07:05:54;;;;;;;42.33;14.87;;;;;;;9.90;100.00;98559.87;4502359;31;20099;-68
2022/03/31 07:08:22;;;;;;;29.52;14.77;;;;;;;9.99;100.00;98559.53;4502180;31;20325;-69
2022/03/31 07:10:50;;;;;;;30.27;14.80;;;;;;;10.00;100.00;98558.59;4502629;31;20100;-69
2022/03/31 07:13:18;;;;;;;36.20;14.63;;;;;;;10.00;100.00;98564.75;4498550;31;20096;-69
2022/03/31 07:15:46;;;;;;;35.90;16.33;;;;;;;10.10;100.00;98551.22;4501547;31;20155;-69
2022/03/31 07:18:13;;;;;;;29.27;17.00;;;;;;;10.08;100.00;98553.91;4501831;31;20478;-69
2022/03/31 07:20:40;;;;;;;37.03;15.65;;;;;;;10.05;100.00;98548.75;4502085;31;20114;-70
2022/03/31 07:23:08;;;;;;;42.83;16.12;;;;;;;9.98;100.00;98545.50;4501356;31;20560;-70
2022/03/31 07:25:35;;;;;;;41.83;16.62;;;;;;;9.92;100.00;98548.38;4501058;31;20168;-71
2022/03/31 07:28:03;;;;;;;33.80;16.92;;;;;;;9.84;100.00;98539.94;4501955;31;20114;-69
2022/03/31 07:30:30;;;;;;;44.33;17.65;;;;;;;9.79;100.00;98545.37;4502217;31;20111;-70
2022/03/31 07:33:00;;;;;;;35.70;17.12;;;;;;;9.82;100.00;98545.25;4501923;31;20100;-71
2022/03/31 07:35:30;;;;;;;33.22;15.40;;;;;;;9.93;100.00;98544.84;4501743;31;20809;-70
2022/03/31 07:37:59;;;;;;;36.30;15.88;;;;;;;9.91;100.00;98546.66;4501635;31;20205;-70
2022/03/31 07:40:27;;;;;;;43.58;16.92;;;;;;;9.90;100.00;98542.34;4501660;31;20079;-70
2022/03/31 07:42:54;;;;;;;42.22;16.20;;;;;;;10.06;100.00;98538.16;4501979;31;20787;-70
2022/03/31 07:45:23;;;;;;;43.00;16.55;;;;;;;10.14;100.00;98542.25;4487621;31;20191;-70
2022/03/31 07:47:50;;;;;;;37.42;16.12;;;;;;;10.17;100.00;98536.88;4501790;31;20095;-70
2022/03/31 07:50:19;;;;;;;41.03;17.52;;;;;;;10.12;100.00;98531.81;4501725;31;20126;-69
2022/03/31 07:52:47;;;;;;;32.60;17.23;;;;;;;10.25;100.00;98533.09;4502041;31;20092;-69
2022/03/31 07:55:16;;;;;;;36.20;15.35;;;;;;;10.27;100.00;98543.53;4501858;31;20502;-70
2022/03/31 07:57:45;;;;;;;30.00;14.23;;;;;;;10.22;100.00;98553.37;4501711;31;20095;-70
2022/03/31 08:00:14;;;;;;;34.75;15.05;;;;;;;10.14;100.00;98547.53;4501830;31;20139;-71
2022/03/31 08:02:44;;;;;;;26.87;14.13;;;;;;;10.16;100.00;98546.56;4501270;31;20167;-70
2022/03/31 08:05:14;;;;;;;38.33;15.07;;;;;;;10.11;100.00;98543.28;4500958;31;20178;-69
2022/03/31 08:07:42;;;;;;;26.40;14.45;;;;;;;10.05;100.00;98544.34;4502028;31;20146;-69
2022/03/31 08:10:09;;;;;;;39.72;18.45;;;;;;;10.02;100.00;98538.34;4506952;31;20087;-71
2022/03/31 08:12:37;;;;;;;36.70;17.25;;;;;;;9.98;100.00;98537.63;4508259;31;20100;-70
2022/03/31 08:15:05;;;;;;;36.75;16.05;;;;;;;10.04;100.00;98526.88;4515971;31;20766;-70
2022/03/31 08:17:32;;;;;;;39.70;16.92;;;;;;;10.17;100.00;98521.09;4514521;31;20117;-70
2022/03/31 08:20:00;;;;;;;31.08;14.48;;;;;;;10.34;100.00;98515.19;4508132;31;20156;-70
2022/03/31 08:22:28;;;;;;;31.30;15.07;;;;;;;10.38;100.00;98511.50;4509552;31;20112;-70
2022/03/31 08:25:00;;;;;;;33.75;15.80;;;;;;;10.36;100.00;98516.00;4509002;31;20100;-72
2022/03/31 08:27:28;;;;;;;34.78;15.07;;;;;;;10.51;100.00;98512.72;4508295;31;20100;-71
2022/03/31 08:29:58;;;;;;;32.92;16.70;;;;;;;10.60;100.00;98493.91;4506805;31;20205;-70
2022/03/31 08:32:26;;;;;;;45.80;16.77;;;;;;;10.54;100.00;98488.91;4509550;31;20514;-70
2022/03/31 08:34:53;;;;;;;50.65;17.17;;;;;;;10.59;100.00;98483.44;4508602;31;20108;-70
2022/03/31 08:37:20;;;;;;;38.17;16.05;;;;;;;10.76;100.00;98488.84;4513516;31;20079;-71
2022/03/31 08:39:47;;;;;;;38.97;16.02;;;;;;;10.88;100.00;98496.19;4508874;31;20517;-70
2022/03/31 08:42:15;;;;;;;43.28;17.42;;;;;;;10.96;100.00;98495.88;4508506;31;20095;-71
2022/03/31 08:44:42;;;;;;;31.17;16.30;;;;;;;10.93;100.00;98496.88;4509841;31;20126;-71
2022/03/31 08:47:09;;;;;;;35.35;16.77;;;;;;;10.99;100.00;98491.34;4506492;31;20087;-72
2022/03/31 08:49:36;;;;;;;47.00;17.65;;;;;;;11.03;100.00;98496.47;4506211;31;20116;-72
2022/03/31 08:52:04;;;;;;;47.00;18.25;;;;;;;10.97;100.00;98489.69;4509593;31;20096;-70
2022/03/31 08:54:32;;;;;;;37.55;18.30;;;;;;;10.92;100.00;98476.72;4500719;31;20163;-71
2022/03/31 08:56:59;;;;;;;38.50;19.08;;;;;;;10.85;100.00;98483.19;4500934;31;20486;-71
2022/03/31 08:59:47;;;;;;;;;;;;;;;10.73;100.00;98474.00;4501473;31;20088;-70
2022/03/31 09:02:22;;;;;;;39.95;17.08;;;;;;;10.81;100.00;98473.69;4501062;31;20047;-70
2022/03/31 09:05:06;;;;;;;32.75;17.67;;;;;;;10.86;100.00;98469.09;4500565;31;20096;-71
2022/03/31 09:07:33;;;;;;;35.60;16.70;;;;;;;10.88;100.00;98467.22;4500441;31;20098;-68
2022/03/31 09:10:00;;;;;;;28.77;13.80;;;;;;;10.95;100.00;98462.53;4507242;31;20099;-68
2022/03/31 09:12:39;;;;;;;30.02;14.57;;;;;;;10.90;100.00;98465.38;4508841;31;20162;-69
2022/03/31 09:15:27;;;;;;;30.25;12.70;;;;;;;10.92;100.00;98458.28;4509097;31;20469;-69
2022/03/31 09:17:57;;;;;;;39.47;12.88;;;;;;;10.94;100.00;98453.78;4514750;31;20091;-69
2022/03/31 09:20:46;;;;;;;31.27;13.05;;;;;;;11.03;100.00;98449.03;4514259;31;20151;-68
2022/03/31 09:23:16;;;;;;;36.08;13.23;;;;;;;11.09;100.00;98446.97;4504760;31;20123;-69
2022/03/31 09:25:43;;;;;;;29.92;11.93;;;;;;;11.14;100.00;98437.09;4505468;31;20164;-70
2022/03/31 09:28:12;;;;;;;32.90;13.23;;;;;;;11.06;100.00;98438.34;4506016;31;20088;-71
2022/03/31 09:30:48;;;;;;;27.80;13.60;;;;;;;11.08;100.00;98444.41;4505809;31;20092;-71
2022/03/31 09:33:53;;;;;;;29.80;14.32;;;;;;;10.90;100.00;98438.19;4505187;31;20495;-72
2022/03/31 09:36:22;;;;;;;33.65;16.08;;;;;;;10.86;100.00;98437.47;4467147;31;20175;-70
2022/03/31 09:38:56;;;;;;;32.25;15.32;;;;;;;11.01;100.00;98433.28;4508376;31;20520;-71
2022/03/31 09:41:32;;;;;;;36.80;16.42;;;;;;;10.94;100.00;98430.06;4507502;31;20083;-70
2022/03/31 09:44:02;;;;;;;39.47;17.35;;;;;;;10.84;100.00;98428.75;4508797;31;20750;-71
2022/03/31 09:46:36;;;;;;;37.95;16.75;;;;;;;11.05;100.00;98421.69;4507917;31;20099;-74
2022/03/31 09:49:20;;;;;;;32.30;17.00;;;;;;;11.05;100.00;98420.81;4507630;31;20413;-74
2022/03/31 09:51:52;;;;;;;30.65;16.02;;;;;;;11.33;100.00;98423.91;4502910;31;20159;-74
2022/03/31 09:54:23;;;;;;;28.50;16.48;;;;;;;11.29;100.00;98417.06;4503148;31;20152;-73
2022/03/31 09:56:51;;;;;;;27.08;17.27;;;;;;;11.06;100.00;98420.78;4502875;31;20854;-74
2022/03/31 09:59:18;;;;;;;35.83;16.80;;;;;;;10.91;100.00;98418.81;4502796;31;20179;-74
2022/03/31 10:01:52;;;;;;;32.28;17.45;;;;;;;10.93;100.00;98415.19;4504963;31;20163;-73
2022/03/31 10:04:20;;;;;;;33.97;19.33;;;;;;;11.00;100.00;98408.72;4514622;31;20543;-73
2022/03/31 10:06:54;;;;;;;39.45;19.17;;;;;;;11.27;100.00;98408.37;4489537;31;20177;-74
2022/03/31 10:09:22;;;;;;;41.22;18.08;;;;;;;11.26;100.00;98398.75;4503073;31;20744;-73
2022/03/31 10:12:05;;;;;;;40.70;17.75;;;;;;;11.30;100.00;98400.31;4502675;31;20415;-73
2022/03/31 10:14:43;;;;;;;29.58;16.62;;;;;;;11.49;100.00;98389.78;4503151;31;20084;-74
2022/03/31 10:17:11;;;;;;;35.95;15.95;;;;;;;11.47;100.00;98387.19;4503930;31;20129;-73
2022/03/31 10:19:42;;;;;;;36.80;17.12;;;;;;;11.28;100.00;98394.28;4502875;31;20155;-72
2022/03/31 10:25:11;;;;;;;29.35;17.50;;;;;;;11.12;100.00;98398.53;4506190;31;20580;-68
2022/03/31 10:27:49;;;;;;;37.97;17.05;;;;;;;11.11;100.00;98396.84;4504134;31;20092;-70
2022/03/31 10:30:23;;;;;;;26.98;15.55;;;;;;;11.09;100.00;98396.88;4504495;31;20182;-69
2022/03/31 10:32:55;;;;;;;34.40;16.25;;;;;;;11.11;100.00;98397.69;4502342;31;20072;-69
2022/03/31 10:35:25;;;;;;;37.00;16.40;;;;;;;11.11;100.00;98394.19;4513638;31;20171;-71
2022/03/31 10:37:53;;;;;;;28.62;17.15;;;;;;;11.11;100.00;98400.31;4512180;31;20099;-70
2022/03/31 10:40:35;;;;;;;32.42;16.85;;;;;;;11.05;100.00;98397.09;4515860;31;20114;-69
2022/03/31 10:43:02;;;;;;;30.00;16.73;;;;;;;11.08;100.00;98396.97;4513718;31;20121;-69
2022/03/31 10:45:38;;;;;;;31.83;17.25;;;;;;;11.12;100.00;98398.53;4508427;31;20111;-69
2022/03/31 10:48:18;;;;;;;32.85;17.23;;;;;;;11.11;100.00;98381.03;4507732;31;20103;-70
2022/03/31 10:50:46;;;;;;;34.17;17.83;;;;;;;11.17;100.00;98362.28;4507258;31;20071;-69
2022/03/31 10:53:14;;;;;;;33.58;17.15;;;;;;;11.20;100.00;98359.47;4503180;31;20091;-70
2022/03/31 10:55:47;;;;;;;33.47;18.15;;;;;;;11.25;100.00;98355.72;4510048;31;20160;-69
2022/03/31 10:58:28;;;;;;;43.30;18.20;;;;;;;11.37;100.00;98354.28;4507297;31;20491;-68
2022/03/31 11:01:03;;;;;;;26.87;17.08;;;;;;;11.41;100.00;98349.72;4506188;31;20511;-69
2022/03/31 11:03:31;;;;;;;33.05;19.00;;;;;;;11.39;100.00;98352.44;4508584;31;20131;-69
2022/03/31 11:06:05;;;;;;;40.42;19.98;;;;;;;11.40;100.00;98350.66;4507673;31;20107;-69
2022/03/31 11:08:46;;;;;;;37.47;18.10;;;;;;;11.55;100.00;98351.69;4506287;31;20475;-70
2022/03/31 11:11:24;;;;;;;29.67;17.70;;;;;;;11.57;100.00;98350.69;4504713;31;20088;-69
2022/03/31 11:13:52;;;;;;;29.37;16.87;;;;;;;11.64;100.00;98338.06;4507286;31;20159;-69
2022/03/31 11:16:19;;;;;;;28.70;17.45;;;;;;;11.73;100.00;98333.19;4511069;31;20840;-69
2022/03/31 11:19:04;;;;;;;23.12;16.10;;;;;;;11.74;100.00;98328.78;4507930;31;20123;-69
2022/03/31 11:21:36;;;;;;;28.90;15.85;;;;;;;11.93;100.00;98334.00;4509505;31;20159;-69
2022/03/31 11:24:05;;;;;;;28.73;15.65;;;;;;;12.05;100.00;98329.88;4504158;31;20147;-69
2022/03/31 11:26:35;;;;;;;29.02;15.73;;;;;;;12.06;100.00;98326.34;4504659;31;20451;-70
2022/03/31 11:29:08;;;;;;;28.55;14.63;;;;;;;12.08;100.00;98319.19;4513535;31;20099;-68
2022/03/31 11:31:36;;;;;;;30.60;15.15;;;;;;;12.06;100.00;98313.12;4512448;31;20118;-70
2022/03/31 11:34:15;;;;;;;26.70;13.57;;;;;;;12.06;100.00;98323.69;4513321;31;20111;-69